Time;durP1;ratioP1;P1;durP2;ratioP2;P2;SDS_P1;SDS_P2;PMS_P1;PMS_P2;Temp;Humidity;BMP_temperature;BMP_pressure;BME280_temperature;BME280_humidity;BME280_pressure;Samples;Min_cycle;Max_cycle;Signal;HPM_P1;HPM_P2
2021/08/02 00:02:06;;;;;;;5.75;3.25;;;17.00;90.20;;;;;;5072306;28;20036;-77
2021/08/02 00:04:40;;;;;;;9.23;4.03;;;16.90;90.30;;;;;;5067963;28;21755;-78
2021/08/02 00:07:12;;;;;;;5.55;3.90;;;16.90;90.20;;;;;;5056907;28;20492;-78
2021/08/02 00:09:42;;;;;;;7.78;3.55;;;16.80;90.10;;;;;;5072097;28;20513;-77
2021/08/02 00:12:26;;;;;;;6.97;3.42;;;16.80;90.20;;;;;;5072730;28;20025;-77
2021/08/02 00:14:55;;;;;;;7.47;3.38;;;16.80;90.40;;;;;;5072115;28;20481;-78
2021/08/02 00:17:21;;;;;;;6.93;3.97;;;16.70;90.30;;;;;;5070509;28;20032;-78
2021/08/02 00:19:46;;;;;;;7.70;3.42;;;16.70;90.40;;;;;;5069919;28;20392;-78
2021/08/02 00:22:12;;;;;;;9.40;3.78;;;16.70;90.40;;;;;;5053859;28;20028;-78
2021/08/02 00:24:38;;;;;;;9.23;3.92;;;16.70;90.30;;;;;;5070759;28;20115;-77
2021/08/02 00:27:04;;;;;;;5.03;3.28;;;16.70;90.40;;;;;;5072414;28;20063;-77
2021/08/02 00:29:31;;;;;;;5.53;3.90;;;16.70;90.40;;;;;;5069830;28;20052;-77
2021/08/02 00:31:59;;;;;;;5.63;3.55;;;16.80;90.50;;;;;;5070863;28;20764;-77
2021/08/02 00:34:25;;;;;;;7.70;3.85;;;16.80;90.40;;;;;;5069744;28;20047;-77
2021/08/02 00:36:57;;;;;;;6.35;3.55;;;16.80;90.40;;;;;;5056863;28;20032;-77
2021/08/02 00:39:34;;;;;;;6.22;3.30;;;16.80;90.60;;;;;;5072138;28;20370;-77
2021/08/02 00:42:03;;;;;;;8.40;3.80;;;16.80;90.50;;;;;;5087791;28;20032;-77
2021/08/02 00:45:10;;;;;;;9.20;3.80;;;16.80;90.40;;;;;;5086197;28;20040;-78
2021/08/02 00:47:40;;;;;;;8.38;3.97;;;16.80;90.40;;;;;;5067489;28;20029;-76
2021/08/02 00:50:16;;;;;;;10.93;3.88;;;16.70;90.40;;;;;;5071612;28;20099;-77
2021/08/02 00:52:56;;;;;;;7.60;4.00;;;16.70;90.50;;;;;;5074625;28;20111;-77
2021/08/02 00:55:23;;;;;;;9.20;3.65;;;16.70;90.70;;;;;;5075946;28;20112;-77
2021/08/02 00:57:49;;;;;;;5.57;3.53;;;16.70;90.30;;;;;;5075819;28;20032;-77
2021/08/02 01:00:17;;;;;;;10.05;3.30;;;16.70;90.20;;;;;;5074081;28;20060;-77
2021/08/02 01:02:49;;;;;;;6.80;3.60;;;16.70;90.20;;;;;;5083187;28;20032;-77
2021/08/02 01:05:15;;;;;;;6.43;3.53;;;16.60;90.20;;;;;;5075420;28;20477;-77
2021/08/02 01:07:51;;;;;;;8.25;4.20;;;16.60;90.30;;;;;;5066956;28;20041;-77
2021/08/02 01:10:18;;;;;;;7.10;3.58;;;16.60;90.30;;;;;;5073262;28;20079;-77
2021/08/02 01:12:47;;;;;;;6.07;4.15;;;16.60;90.30;;;;;;5069676;28;20025;-77
2021/08/02 01:15:15;;;;;;;9.32;4.20;;;16.60;90.40;;;;;;5067064;28;20031;-77
2021/08/02 01:17:43;;;;;;;7.05;4.20;;;16.60;90.40;;;;;;5073423;28;20036;-77
2021/08/02 01:20:09;;;;;;;7.37;3.60;;;16.60;90.50;;;;;;5078602;28;20052;-77
2021/08/02 01:22:37;;;;;;;9.40;4.18;;;16.60;90.50;;;;;;5074722;28;20024;-78
2021/08/02 01:25:34;;;;;;;6.40;3.30;;;16.60;90.50;;;;;;5075408;28;20170;-77
2021/08/02 01:28:15;;;;;;;9.40;3.70;;;16.60;90.50;;;;;;5073980;28;20045;-77
2021/08/02 01:30:41;;;;;;;5.05;3.28;;;16.60;90.50;;;;;;5075346;28;20024;-77
2021/08/02 01:33:07;;;;;;;5.72;3.47;;;16.60;90.50;;;;;;5073581;28;20096;-77
2021/08/02 01:35:34;;;;;;;8.75;4.03;;;16.60;90.50;;;;;;5074649;28;20032;-77
2021/08/02 01:38:00;;;;;;;9.40;3.85;;;16.60;90.40;;;;;;5070390;28;20059;-77
2021/08/02 01:40:27;;;;;;;8.50;4.00;;;16.60;90.40;;;;;;5065918;28;20483;-77
2021/08/02 01:42:52;;;;;;;9.23;4.18;;;16.50;90.30;;;;;;5073535;28;20036;-77
2021/08/02 01:45:18;;;;;;;6.07;3.40;;;16.50;90.30;;;;;;5074624;28;20549;-77
2021/08/02 01:48:13;;;;;;;6.53;4.10;;;16.50;90.30;;;;;;5074786;28;20089;-77
2021/08/02 01:51:00;;;;;;;5.15;3.55;;;16.50;90.50;;;;;;5053582;28;20056;-77
2021/08/02 01:53:36;;;;;;;6.43;3.95;;;16.50;90.30;;;;;;5061241;28;20020;-77
2021/08/02 01:56:26;;;;;;;9.30;4.50;;;16.40;90.30;;;;;;5058086;28;20063;-77
2021/08/02 01:59:13;;;;;;;5.60;3.72;;;16.30;90.10;;;;;;5072159;28;20039;-77
2021/08/02 02:02:13;;;;;;;5.97;3.80;;;16.20;90.10;;;;;;5074230;28;20043;-77
2021/08/02 02:04:59;;;;;;;9.95;4.18;;;16.20;90.20;;;;;;5072755;28;20028;-77
2021/08/02 02:07:28;;;;;;;8.85;4.07;;;16.10;90.20;;;;;;5071865;28;20150;-77
2021/08/02 02:09:57;;;;;;;7.97;4.13;;;16.10;90.50;;;;;;5074890;28;20090;-77
2021/08/02 02:12:23;;;;;;;6.80;4.07;;;16.10;90.30;;;;;;5065859;28;20489;-77
2021/08/02 02:14:51;;;;;;;9.13;3.83;;;16.10;90.30;;;;;;5074328;28;20079;-77
2021/08/02 02:17:20;;;;;;;5.25;4.28;;;16.10;90.30;;;;;;5056457;28;20029;-77
2021/08/02 02:19:48;;;;;;;5.78;4.15;;;16.00;90.30;;;;;;5073852;28;20079;-77
2021/08/02 02:22:15;;;;;;;6.15;4.40;;;16.10;90.40;;;;;;5074209;28;20024;-77
2021/08/02 02:24:42;;;;;;;13.77;4.28;;;16.00;90.50;;;;;;5072429;28;20119;-77
2021/08/02 02:27:09;;;;;;;7.88;3.78;;;16.10;90.50;;;;;;5073874;28;20443;-77
2021/08/02 02:29:36;;;;;;;11.90;4.63;;;16.10;90.50;;;;;;5056420;28;20416;-77
2021/08/02 02:32:04;;;;;;;10.35;4.43;;;16.10;90.40;;;;;;5073559;28;20040;-77
2021/08/02 02:34:31;;;;;;;6.20;3.63;;;16.10;90.40;;;;;;5080154;28;20473;-77
2021/08/02 02:36:57;;;;;;;7.80;4.30;;;16.10;90.30;;;;;;5065329;28;20385;-77
2021/08/02 02:39:26;;;;;;;7.28;4.53;;;16.10;90.30;;;;;;5065594;28;20424;-77
2021/08/02 02:41:52;;;;;;;9.70;3.88;;;16.10;90.40;;;;;;5074004;28;20029;-77
2021/08/02 02:44:19;;;;;;;8.73;4.47;;;16.10;90.40;;;;;;5073772;28;20040;-77
2021/08/02 02:46:46;;;;;;;16.73;4.40;;;16.00;90.40;;;;;;5059586;28;20119;-77
2021/08/02 02:49:12;;;;;;;10.15;4.72;;;16.00;90.40;;;;;;5062074;28;20024;-77
2021/08/02 02:51:38;;;;;;;12.90;4.47;;;16.00;90.40;;;;;;5072101;28;20028;-77
2021/08/02 02:54:04;;;;;;;9.20;4.53;;;16.00;90.40;;;;;;5060847;28;20107;-77
2021/08/02 02:56:32;;;;;;;9.25;4.38;;;16.00;90.50;;;;;;5053675;28;20026;-77
2021/08/02 02:58:58;;;;;;;7.32;4.70;;;16.00;90.50;;;;;;5071516;28;20129;-77
2021/08/02 03:01:29;;;;;;;11.75;5.47;;;16.10;90.70;;;;;;5072645;28;20032;-77
2021/08/02 03:03:58;;;;;;;6.95;4.53;;;16.00;90.30;;;;;;5072659;28;20158;-77
2021/08/02 03:06:27;;;;;;;10.77;5.30;;;16.00;90.40;;;;;;5071443;28;20051;-77
2021/08/02 03:08:53;;;;;;;10.18;4.75;;;16.00;90.40;;;;;;5073442;28;20036;-77
2021/08/02 03:11:20;;;;;;;9.77;4.47;;;16.00;90.30;;;;;;5073268;28;20048;-77
2021/08/02 03:13:45;;;;;;;11.95;4.88;;;16.00;90.40;;;;;;5072965;28;20028;-77
2021/08/02 03:16:11;;;;;;;16.95;4.57;;;16.00;90.30;;;;;;5073113;28;20028;-77
2021/08/02 03:18:37;;;;;;;9.15;4.60;;;16.00;90.30;;;;;;5070337;28;20036;-77
2021/08/02 03:21:04;;;;;;;7.00;4.30;;;16.00;90.30;;;;;;5073142;28;20051;-77
2021/08/02 03:23:35;;;;;;;10.98;4.95;;;16.10;90.40;;;;;;5063114;28;20033;-77
2021/08/02 03:26:11;;;;;;;7.97;4.65;;;16.00;90.40;;;;;;5065601;28;20032;-77
2021/08/02 03:28:42;;;;;;;12.20;4.78;;;16.10;90.40;;;;;;5072389;28;20153;-77
2021/08/02 03:31:10;;;;;;;10.75;4.30;;;16.00;90.30;;;;;;5072922;28;20405;-77
2021/08/02 03:33:39;;;;;;;7.18;4.00;;;16.00;90.40;;;;;;5071201;28;20021;-77
2021/08/02 03:36:15;;;;;;;7.38;4.45;;;16.00;90.50;;;;;;5072589;28;20037;-77
2021/08/02 03:38:42;;;;;;;11.18;4.97;;;16.00;90.80;;;;;;5072525;28;20031;-77
2021/08/02 03:41:10;;;;;;;7.63;4.18;;;16.00;90.50;;;;;;5072285;28;20036;-77
2021/08/02 03:43:37;;;;;;;8.57;4.43;;;15.90;90.40;;;;;;5072693;28;20536;-77
2021/08/02 03:46:05;;;;;;;6.60;4.35;;;15.90;90.50;;;;;;5072272;28;20028;-77
2021/08/02 03:48:32;;;;;;;16.67;5.15;;;15.90;90.60;;;;;;5072180;28;20462;-77
2021/08/02 03:50:58;;;;;;;10.25;4.57;;;15.90;90.50;;;;;;5072896;28;20025;-77
2021/08/02 03:53:23;;;;;;;10.73;4.80;;;15.90;90.50;;;;;;5072398;28;20488;-77
2021/08/02 03:55:51;;;;;;;11.70;4.72;;;15.90;90.50;;;;;;5072154;28;20033;-77
2021/08/02 03:58:18;;;;;;;10.85;4.43;;;15.90;90.50;;;;;;5072259;28;20474;-77
2021/08/02 04:00:43;;;;;;;10.02;4.53;;;15.90;90.50;;;;;;5058932;28;20036;-77
2021/08/02 04:03:09;;;;;;;7.47;4.32;;;15.90;90.50;;;;;;5072152;28;20035;-77
2021/08/02 04:05:35;;;;;;;7.25;4.07;;;15.80;90.50;;;;;;5069556;28;20182;-77
2021/08/02 04:08:02;;;;;;;11.90;4.97;;;15.90;90.50;;;;;;5071232;28;20039;-77
2021/08/02 04:10:29;;;;;;;10.73;4.97;;;15.90;90.50;;;;;;5071121;28;20413;-77
2021/08/02 04:12:55;;;;;;;10.73;5.03;;;15.90;90.50;;;;;;5072071;28;20028;-77
2021/08/02 04:15:21;;;;;;;9.95;4.40;;;15.90;90.60;;;;;;5071184;28;20476;-77
2021/08/02 04:17:46;;;;;;;11.60;5.25;;;15.80;90.60;;;;;;5072391;28;20060;-77
2021/08/02 04:20:14;;;;;;;13.65;5.07;;;15.80;90.60;;;;;;5072572;28;20539;-77
2021/08/02 04:22:40;;;;;;;10.35;4.25;;;15.90;90.60;;;;;;5068970;28;20036;-77
2021/08/02 04:25:07;;;;;;;11.02;5.07;;;15.90;90.60;;;;;;5071849;28;20451;-77
2021/08/02 04:27:32;;;;;;;9.73;4.55;;;15.90;90.60;;;;;;5087353;28;20032;-77
2021/08/02 04:29:58;;;;;;;7.93;4.95;;;15.90;90.60;;;;;;5075104;28;20043;-77
2021/08/02 04:32:24;;;;;;;10.55;4.90;;;15.90;90.60;;;;;;5075116;28;20029;-77
2021/08/02 04:34:49;;;;;;;14.25;4.95;;;15.90;90.50;;;;;;5075949;28;20033;-77
2021/08/02 04:37:15;;;;;;;11.15;4.95;;;15.90;90.50;;;;;;5076237;28;20051;-77
2021/08/02 04:39:40;;;;;;;11.55;5.45;;;15.90;90.50;;;;;;5076221;28;20115;-77
2021/08/02 04:42:06;;;;;;;10.55;5.45;;;15.90;90.60;;;;;;5076381;28;20035;-77
2021/08/02 04:44:32;;;;;;;6.20;5.00;;;15.90;90.60;;;;;;5076314;28;20029;-77
2021/08/02 04:46:57;;;;;;;8.75;5.00;;;15.90;90.60;;;;;;5070846;28;20503;-78
2021/08/02 04:49:23;;;;;;;6.30;4.63;;;15.90;90.60;;;;;;5074607;28;20029;-77
2021/08/02 04:51:48;;;;;;;7.30;5.13;;;15.90;90.60;;;;;;5072879;28;20515;-77
2021/08/02 04:54:14;;;;;;;12.30;4.90;;;16.00;90.60;;;;;;5075949;28;20040;-77
2021/08/02 04:56:40;;;;;;;8.85;5.85;;;16.00;90.70;;;;;;5074739;28;20032;-77
2021/08/02 04:59:05;;;;;;;15.43;6.13;;;16.00;90.60;;;;;;5071056;28;20056;-77
2021/08/02 05:01:31;;;;;;;10.80;5.00;;;16.00;90.60;;;;;;5075244;28;20051;-78
2021/08/02 05:03:56;;;;;;;8.93;4.63;;;16.00;90.60;;;;;;5075048;28;20039;-77
2021/08/02 05:06:22;;;;;;;11.00;5.03;;;16.00;90.60;;;;;;5056619;28;20052;-77
2021/08/02 05:08:48;;;;;;;12.43;5.38;;;16.00;90.60;;;;;;5072393;28;20031;-77
2021/08/02 05:11:13;;;;;;;8.82;5.63;;;16.00;90.50;;;;;;5073433;28;20029;-77
2021/08/02 05:13:39;;;;;;;13.40;5.47;;;16.00;90.50;;;;;;5074097;28;20050;-77
2021/08/02 05:16:07;;;;;;;9.13;5.32;;;16.00;90.60;;;;;;5076390;28;20033;-77
2021/08/02 05:18:33;;;;;;;10.60;5.10;;;16.00;90.50;;;;;;5075362;28;20017;-77
2021/08/02 05:20:58;;;;;;;17.13;5.25;;;16.00;90.50;;;;;;5073935;28;20036;-77
2021/08/02 05:23:24;;;;;;;7.53;4.53;;;16.00;90.50;;;;;;5075068;28;20036;-77
2021/08/02 05:25:50;;;;;;;10.45;5.15;;;16.10;90.50;;;;;;5069481;28;20458;-77
2021/08/02 05:28:17;;;;;;;12.65;4.93;;;16.10;90.40;;;;;;5067218;28;20541;-77
2021/08/02 05:30:43;;;;;;;9.00;5.70;;;16.10;90.40;;;;;;5074526;28;20025;-77
2021/08/02 05:33:08;;;;;;;12.98;4.80;;;16.10;90.40;;;;;;5073573;28;20182;-78
2021/08/02 05:35:34;;;;;;;10.20;5.10;;;16.20;90.50;;;;;;5074399;28;20047;-78
2021/08/02 05:37:59;;;;;;;10.35;4.85;;;16.20;90.50;;;;;;5048957;28;20048;-78
2021/08/02 05:40:25;;;;;;;17.25;4.90;;;16.30;90.60;;;;;;5072473;28;20119;-77
2021/08/02 05:42:51;;;;;;;7.25;3.83;;;16.40;90.60;;;;;;5066095;28;20029;-77
2021/08/02 05:45:17;;;;;;;10.00;5.20;;;16.40;90.50;;;;;;5067059;28;20174;-77
2021/08/02 05:47:43;;;;;;;12.75;5.65;;;16.40;90.40;;;;;;5073885;28;20017;-77
2021/08/02 05:50:09;;;;;;;11.18;4.90;;;16.50;90.40;;;;;;5075191;28;20024;-77
2021/08/02 05:52:35;;;;;;;8.73;4.60;;;16.50;90.30;;;;;;5075198;28;20256;-77
2021/08/02 05:55:00;;;;;;;8.77;5.10;;;16.50;90.30;;;;;;5073506;28;20033;-77
2021/08/02 05:57:26;;;;;;;13.55;5.22;;;16.50;90.30;;;;;;5070411;28;20043;-77
2021/08/02 05:59:52;;;;;;;9.77;4.90;;;16.50;90.40;;;;;;5053635;28;20040;-77
2021/08/02 06:02:17;;;;;;;12.32;5.53;;;16.50;90.40;;;;;;5055009;28;20069;-77
2021/08/02 06:04:43;;;;;;;12.98;5.45;;;16.50;90.30;;;;;;5054792;28;20039;-77
2021/08/02 06:07:09;;;;;;;11.73;5.03;;;16.50;90.10;;;;;;5054898;28;20033;-77
2021/08/02 06:09:35;;;;;;;10.45;4.55;;;16.50;90.10;;;;;;5053810;28;20498;-77
2021/08/02 06:12:01;;;;;;;12.38;4.53;;;16.60;90.20;;;;;;5061734;28;20051;-77
2021/08/02 06:14:28;;;;;;;11.23;5.03;;;16.60;90.10;;;;;;5073379;28;20037;-77
2021/08/02 06:16:53;;;;;;;10.68;4.90;;;16.60;90.00;;;;;;5090173;28;20028;-77
2021/08/02 06:19:19;;;;;;;8.75;4.90;;;16.60;89.70;;;;;;5074617;28;20031;-77
2021/08/02 06:21:45;;;;;;;12.43;4.50;;;16.60;89.40;;;;;;5073417;28;20025;-77
2021/08/02 06:24:10;;;;;;;8.77;4.60;;;16.70;89.10;;;;;;5070534;28;20029;-77
2021/08/02 06:26:37;;;;;;;9.02;4.80;;;16.80;89.30;;;;;;5074136;28;20427;-77
2021/08/02 06:29:03;;;;;;;6.78;4.28;;;16.80;89.20;;;;;;5054538;28;20112;-77
2021/08/02 06:31:29;;;;;;;10.77;4.15;;;16.80;88.90;;;;;;5054366;28;20109;-77
2021/08/02 06:33:54;;;;;;;10.93;4.53;;;16.80;89.00;;;;;;5054388;28;20056;-77
2021/08/02 06:36:21;;;;;;;9.80;4.43;;;16.70;88.80;;;;;;5060520;28;20474;-77
2021/08/02 06:38:47;;;;;;;8.23;4.70;;;16.70;88.50;;;;;;5071905;28;20052;-77
2021/08/02 06:41:13;;;;;;;12.02;5.10;;;16.70;88.60;;;;;;5072190;28;20036;-77
2021/08/02 06:43:39;;;;;;;8.73;4.38;;;16.60;88.50;;;;;;5054501;28;20029;-78
2021/08/02 06:46:06;;;;;;;6.75;4.40;;;16.60;88.60;;;;;;5053787;28;20238;-77
2021/08/02 06:48:32;;;;;;;7.97;4.65;;;16.60;88.90;;;;;;5036291;28;20029;-77
2021/08/02 06:50:58;;;;;;;15.77;4.75;;;16.60;90.00;;;;;;5064843;28;20043;-77
2021/08/02 06:53:23;;;;;;;9.77;5.60;;;16.60;89.80;;;;;;5067263;28;20025;-77
2021/08/02 06:55:49;;;;;;;8.82;4.40;;;16.60;90.00;;;;;;5072106;28;20111;-77
2021/08/02 06:58:16;;;;;;;7.90;4.15;;;16.60;90.10;;;;;;5072925;28;20531;-82
2021/08/02 07:00:42;;;;;;;6.25;4.53;;;16.60;90.20;;;;;;5073026;28;20044;-84
2021/08/02 07:03:08;;;;;;;9.68;4.65;;;16.60;90.20;;;;;;5073036;28;20384;-84
2021/08/02 07:05:34;;;;;;;7.47;4.00;;;16.60;90.30;;;;;;5074155;28;20119;-84
2021/08/02 07:07:59;;;;;;;4.63;2.97;;;16.70;90.10;;;;;;5074495;28;20024;-84
2021/08/02 07:10:25;;;;;;;5.82;3.30;;;16.70;89.80;;;;;;5074567;28;20028;-84
2021/08/02 07:12:51;;;;;;;6.55;2.92;;;16.70;89.70;;;;;;5073134;28;20112;-84
2021/08/02 07:15:17;;;;;;;4.40;2.60;;;16.70;89.70;;;;;;5071871;28;20025;-75
2021/08/02 07:17:42;;;;;;;7.53;2.78;;;16.70;89.30;;;;;;5073046;28;20039;-75
2021/08/02 07:20:08;;;;;;;5.03;2.60;;;16.70;88.50;;;;;;5072081;28;20033;-75
2021/08/02 07:22:34;;;;;;;4.72;2.50;;;16.70;88.30;;;;;;5072045;28;20032;-75
2021/08/02 07:25:00;;;;;;;3.22;2.20;;;16.80;88.60;;;;;;5071646;28;20438;-75
2021/08/02 07:27:26;;;;;;;8.02;2.38;;;16.70;88.40;;;;;;5060044;28;20450;-81
2021/08/02 07:29:51;;;;;;;5.55;2.30;;;16.70;88.20;;;;;;5053941;28;20037;-81
2021/08/02 07:32:17;;;;;;;7.53;2.40;;;16.70;88.10;;;;;;5053888;28;20431;-81
2021/08/02 07:34:43;;;;;;;3.95;2.38;;;16.80;88.70;;;;;;5053847;28;20029;-81
2021/08/02 07:37:08;;;;;;;4.18;1.92;;;16.90;88.00;;;;;;5052556;28;20029;-81
2021/08/02 07:39:34;;;;;;;3.58;2.08;;;17.00;87.40;;;;;;5053712;28;20029;-81
2021/08/02 07:41:59;;;;;;;5.63;2.50;;;17.00;87.30;;;;;;5052429;28;20477;-81
2021/08/02 07:44:25;;;;;;;4.85;2.05;;;17.10;87.50;;;;;;5052399;28;20047;-81
2021/08/02 07:46:51;;;;;;;2.55;1.60;;;17.10;87.20;;;;;;5053542;28;20478;-81
2021/08/02 07:49:17;;;;;;;3.40;2.20;;;17.10;86.30;;;;;;5052537;28;20029;-80
2021/08/02 07:51:42;;;;;;;4.15;1.92;;;17.10;86.50;;;;;;5052332;28;20067;-80
2021/08/02 07:54:09;;;;;;;3.47;1.80;;;17.10;86.30;;;;;;5052369;28;20040;-80
2021/08/02 07:56:35;;;;;;;4.10;1.98;;;17.10;85.80;;;;;;5053082;28;20440;-81
2021/08/02 07:59:01;;;;;;;5.53;2.10;;;17.20;85.70;;;;;;5053121;28;20025;-81
2021/08/02 08:01:26;;;;;;;3.20;2.20;;;17.20;85.90;;;;;;5052943;28;20028;-81
2021/08/02 08:03:52;;;;;;;5.85;2.00;;;17.20;86.30;;;;;;5067528;28;20103;-81
2021/08/02 08:06:17;;;;;;;5.40;2.00;;;17.30;85.80;;;;;;5052789;28;20053;-81
2021/08/02 08:08:43;;;;;;;5.68;2.28;;;17.40;85.60;;;;;;5072255;28;20039;-81
2021/08/02 08:11:10;;;;;;;4.60;1.98;;;17.50;85.50;;;;;;5073423;28;20028;-82
2021/08/02 08:13:36;;;;;;;5.20;2.15;;;17.60;84.70;;;;;;5073477;28;20103;-81
2021/08/02 08:16:02;;;;;;;6.30;2.25;;;17.70;84.40;;;;;;5073215;28;20028;-82
2021/08/02 08:18:29;;;;;;;4.25;1.75;;;17.80;84.40;;;;;;5064176;28;20036;-81
2021/08/02 08:20:58;;;;;;;7.70;1.70;;;17.90;84.20;;;;;;5072754;28;20028;-81
2021/08/02 08:23:24;;;;;;;;;;;18.00;83.50;;;;;;5073217;28;20099;-82
2021/08/02 08:25:50;;;;;;;4.07;1.80;;;18.10;82.80;;;;;;5073004;28;19969;-82
2021/08/02 08:28:15;;;;;;;5.60;1.58;;;18.20;82.60;;;;;;5064708;28;20029;-81
2021/08/02 08:30:41;;;;;;;5.22;1.88;;;18.30;82.30;;;;;;5051994;28;20459;-82
2021/08/02 08:33:07;;;;;;;4.10;1.83;;;18.40;82.30;;;;;;5051841;28;20040;-81
2021/08/02 08:35:36;;;;;;;3.35;1.80;;;18.40;82.00;;;;;;5053185;28;20116;-82
2021/08/02 08:38:03;;;;;;;5.55;1.88;;;18.50;81.60;;;;;;5053133;28;20111;-82
2021/08/02 08:40:29;;;;;;;5.43;2.00;;;18.60;81.10;;;;;;5051827;28;20029;-81
2021/08/02 08:42:55;;;;;;;4.82;2.20;;;18.60;80.70;;;;;;5051702;28;20076;-81
2021/08/02 08:45:21;;;;;;;4.05;2.10;;;18.60;80.70;;;;;;5052903;28;20116;-81
2021/08/02 08:47:48;;;;;;;5.78;1.90;;;18.60;80.40;;;;;;5051662;28;20454;-81
2021/08/02 08:50:14;;;;;;;4.90;2.00;;;18.70;80.40;;;;;;5051849;28;20501;-82
2021/08/02 08:52:40;;;;;;;3.83;1.85;;;18.70;79.80;;;;;;5066342;28;20032;-82
2021/08/02 08:55:14;;;;;;;4.15;2.22;;;18.80;80.00;;;;;;5072969;28;20050;-84
2021/08/02 08:57:41;;;;;;;6.93;2.13;;;18.90;80.10;;;;;;5088513;28;20115;-84
2021/08/02 09:00:27;;;;;;;4.55;2.10;;;19.00;79.20;;;;;;5073066;28;20029;-83
2021/08/02 09:02:55;;;;;;;4.15;1.73;;;19.10;78.20;;;;;;5088514;28;20044;-83
2021/08/02 09:05:30;;;;;;;5.15;1.63;;;19.30;78.70;;;;;;5072937;28;20076;-84
2021/08/02 09:07:55;;;;;;;5.43;1.80;;;19.60;78.30;;;;;;5051548;28;20041;-82
2021/08/02 09:10:22;;;;;;;3.45;1.90;;;19.80;76.70;;;;;;5051669;28;20040;-83
2021/08/02 09:12:56;;;;;;;7.50;2.13;;;20.00;76.50;;;;;;5054331;28;20037;-84
2021/08/02 09:15:42;;;;;;;7.43;2.08;;;20.10;76.40;;;;;;5055309;28;20032;-84
2021/08/02 09:18:14;;;;;;;5.75;2.03;;;20.20;76.10;;;;;;5056463;28;20385;-84
2021/08/02 09:20:39;;;;;;;4.55;1.52;;;20.10;75.50;;;;;;5056355;28;20108;-85
2021/08/02 09:23:08;;;;;;;4.38;1.55;;;20.00;75.50;;;;;;5060688;28;20132;-84
2021/08/02 09:25:35;;;;;;;4.35;1.60;;;19.90;75.50;;;;;;5076013;28;20036;-83
2021/08/02 09:28:14;;;;;;;6.18;1.98;;;19.80;75.20;;;;;;5076135;28;20056;-83
2021/08/02 09:30:50;;;;;;;7.60;2.47;;;19.70;74.80;;;;;;5076152;28;20423;-84
2021/08/02 09:33:16;;;;;;;6.35;1.88;;;19.50;75.20;;;;;;5076078;28;20381;-83
2021/08/02 09:35:47;;;;;;;4.03;1.60;;;19.30;76.20;;;;;;5074816;28;20039;-83
2021/08/02 09:38:14;;;;;;;4.40;1.23;;;19.20;77.30;;;;;;5074909;28;20040;-81
2021/08/02 09:40:43;;;;;;;6.70;1.30;;;19.30;76.60;;;;;;5075784;28;20025;-81
2021/08/02 09:43:14;;;;;;;4.80;1.23;;;19.30;75.80;;;;;;5054659;28;20039;-82
2021/08/02 09:45:45;;;;;;;5.00;1.50;;;19.40;75.60;;;;;;5054541;28;20061;-83
2021/08/02 09:48:17;;;;;;;4.70;1.50;;;19.70;75.60;;;;;;5055924;28;20025;-82
2021/08/02 09:50:43;;;;;;;5.70;1.40;;;19.80;75.00;;;;;;5054560;28;20025;-82
2021/08/02 09:53:18;;;;;;;5.22;1.20;;;20.00;74.30;;;;;;5054516;28;20025;-83
2021/08/02 09:55:45;;;;;;;4.38;1.50;;;20.20;73.70;;;;;;5068474;28;20020;-83
2021/08/02 09:58:15;;;;;;;4.07;1.40;;;20.30;73.30;;;;;;5074227;28;20123;-82
2021/08/02 10:00:42;;;;;;;6.75;1.23;;;20.50;73.10;;;;;;5074613;28;20481;-83
2021/08/02 10:03:07;;;;;;;4.13;1.40;;;20.70;72.70;;;;;;5075337;28;20029;-82
2021/08/02 10:05:38;;;;;;;3.75;1.40;;;20.80;72.50;;;;;;5075284;28;20128;-82
2021/08/02 10:08:06;;;;;;;4.97;1.60;;;20.90;70.40;;;;;;5090535;28;20017;-82
2021/08/02 10:10:32;;;;;;;6.00;1.60;;;20.90;70.30;;;;;;5075233;28;20474;-83
2021/08/02 10:12:58;;;;;;;7.50;1.90;;;20.80;70.20;;;;;;5075597;28;20024;-82
2021/08/02 10:15:27;;;;;;;4.90;1.50;;;20.80;69.20;;;;;;5075317;28;20382;-82
2021/08/02 10:17:56;;;;;;;5.18;1.30;;;20.80;68.80;;;;;;5075330;28;20081;-81
2021/08/02 10:20:27;;;;;;;5.20;1.40;;;20.80;68.30;;;;;;5074564;28;20024;-83
2021/08/02 10:22:54;;;;;;;6.05;1.30;;;20.80;68.80;;;;;;5075019;28;20025;-81
2021/08/02 10:25:34;;;;;;;3.90;1.25;;;20.80;68.20;;;;;;5073925;28;20108;-82
2021/08/02 10:28:10;;;;;;;5.32;1.35;;;20.80;68.30;;;;;;5073953;28;20020;-82
2021/08/02 10:30:37;;;;;;;4.28;1.52;;;20.90;68.90;;;;;;5075009;28;20044;-81
2021/08/02 10:33:03;;;;;;;7.57;1.63;;;20.90;68.70;;;;;;5074776;28;20027;-80
2021/08/02 10:35:34;;;;;;;4.60;1.63;;;20.90;68.70;;;;;;5094368;28;20023;-82
2021/08/02 10:38:14;;;;;;;3.65;1.40;;;21.10;69.40;;;;;;5094921;28;20387;-82
2021/08/02 10:40:54;;;;;;;5.88;1.80;;;21.10;67.10;;;;;;5095062;28;20028;-81
2021/08/02 10:43:35;;;;;;;1.75;1.30;;;21.00;68.20;;;;;;5094902;28;20076;-81
2021/08/02 10:46:18;;;;;;;4.38;1.60;;;21.10;69.60;;;;;;5094762;28;20020;-81
2021/08/02 10:48:44;;;;;;;4.45;1.60;;;21.10;69.70;;;;;;5087134;28;20410;-81
2021/08/02 10:51:13;;;;;;;2.15;1.55;;;21.20;69.80;;;;;;5092622;28;20020;-82
2021/08/02 10:53:39;;;;;;;3.53;1.60;;;21.30;69.60;;;;;;5093051;28;20020;-82
2021/08/02 10:56:05;;;;;;;3.80;1.85;;;21.30;69.00;;;;;;5093297;28;20028;-82
2021/08/02 10:58:36;;;;;;;3.67;1.63;;;21.40;68.90;;;;;;5077640;28;20032;-82
2021/08/02 11:01:05;;;;;;;3.30;1.73;;;21.30;68.40;;;;;;5074209;28;20031;-82
2021/08/02 11:03:42;;;;;;;7.50;2.03;;;21.20;67.90;;;;;;5073621;28;20025;-82
2021/08/02 11:06:17;;;;;;;3.60;1.90;;;21.30;66.90;;;;;;5062432;28;20064;-83
2021/08/02 11:08:47;;;;;;;5.05;1.63;;;21.30;66.40;;;;;;5053825;28;20021;-82
2021/08/02 11:11:29;;;;;;;5.68;1.58;;;21.30;67.20;;;;;;5053978;28;20064;-82
2021/08/02 11:14:24;;;;;;;3.15;1.50;;;21.30;65.30;;;;;;5052635;28;20029;-82
2021/08/02 11:16:51;;;;;;;4.72;2.00;;;21.30;66.70;;;;;;5058080;28;20041;-82
2021/08/02 11:19:25;;;;;;;3.35;1.83;;;21.30;66.40;;;;;;5052803;28;20037;-82
2021/08/02 11:22:06;;;;;;;2.20;1.48;;;21.30;65.20;;;;;;5052464;28;20486;-82
2021/08/02 11:24:53;;;;;;;4.72;1.73;;;21.30;66.70;;;;;;5053381;28;20143;-83
2021/08/02 11:27:19;;;;;;;4.20;1.88;;;21.30;66.60;;;;;;5051570;28;20103;-82
2021/08/02 11:29:54;;;;;;;8.18;1.77;;;21.40;66.40;;;;;;5053473;28;20025;-82
2021/08/02 11:32:21;;;;;;;3.92;1.90;;;21.40;67.10;;;;;;5072410;28;20020;-82
2021/08/02 11:34:57;;;;;;;4.45;2.05;;;21.40;67.10;;;;;;5073423;28;20048;-82
2021/08/02 11:37:28;;;;;;;4.15;1.85;;;21.50;66.50;;;;;;5073626;28;20044;-82
2021/08/02 11:40:02;;;;;;;4.28;2.03;;;21.60;67.30;;;;;;5073254;28;20056;-83
2021/08/02 11:42:32;;;;;;;2.35;1.77;;;21.60;66.60;;;;;;5052391;28;20041;-82
2021/08/02 11:45:00;;;;;;;4.97;1.92;;;21.60;66.40;;;;;;5053604;28;20044;-82
2021/08/02 11:47:28;;;;;;;3.25;1.73;;;21.60;67.30;;;;;;5053756;28;20053;-82
2021/08/02 11:49:57;;;;;;;4.05;2.40;;;21.70;67.50;;;;;;5053753;28;20056;-82
2021/08/02 11:52:26;;;;;;;5.28;2.83;;;21.70;66.90;;;;;;5069132;28;20040;-83
2021/08/02 11:55:02;;;;;;;4.28;2.42;;;21.60;66.10;;;;;;5053503;28;20033;-82
2021/08/02 11:57:28;;;;;;;7.55;2.45;;;21.60;66.60;;;;;;5053514;28;20028;-82
2021/08/02 12:00:14;;;;;;;4.03;3.08;;;21.60;66.80;;;;;;5054255;28;20556;-83
2021/08/02 12:02:41;;;;;;;6.50;2.45;;;21.70;66.50;;;;;;5053356;28;20028;-82
2021/08/02 12:05:18;;;;;;;5.22;2.30;;;21.80;67.40;;;;;;5053226;28;20107;-82
2021/08/02 12:07:44;;;;;;;4.28;2.67;;;21.80;66.70;;;;;;5053396;28;20055;-82
2021/08/02 12:10:12;;;;;;;4.25;2.78;;;21.90;65.40;;;;;;5053263;28;20401;-82
2021/08/02 12:12:39;;;;;;;6.38;3.08;;;21.90;65.80;;;;;;5053248;28;20539;-82
2021/08/02 12:15:08;;;;;;;3.70;2.65;;;21.90;66.20;;;;;;5053374;28;20024;-83
2021/08/02 12:17:35;;;;;;;;;;;21.90;66.70;;;;;;5062686;28;20043;-82
2021/08/02 12:20:02;;;;;;;7.15;2.47;;;21.90;65.90;;;;;;5073073;28;19908;-81
2021/08/02 12:22:36;;;;;;;4.88;2.90;;;21.80;65.10;;;;;;5073165;28;20035;-81
2021/08/02 12:25:03;;;;;;;5.60;2.72;;;21.90;65.50;;;;;;5072483;28;20035;-81
2021/08/02 12:27:28;;;;;;;6.15;2.60;;;22.00;65.30;;;;;;5071460;28;20032;-81
2021/08/02 12:29:57;;;;;;;3.55;2.13;;;22.10;65.00;;;;;;5070672;28;20390;-81
2021/08/02 12:32:44;;;;;;;6.25;2.80;;;22.20;64.90;;;;;;5076839;28;20036;-81
2021/08/02 12:35:16;;;;;;;8.25;2.08;;;22.40;64.60;;;;;;5091770;28;20394;-82
2021/08/02 12:37:44;;;;;;;6.15;2.13;;;22.50;64.80;;;;;;5066267;28;20165;-82
2021/08/02 12:40:12;;;;;;;3.78;1.95;;;22.70;64.20;;;;;;5073065;28;20032;-84
2021/08/02 12:42:41;;;;;;;7.93;2.70;;;22.80;64.00;;;;;;5073292;28;20028;-81
2021/08/02 12:45:07;;;;;;;;;;;22.90;63.20;;;;;;5073346;28;20051;-81
2021/08/02 12:47:33;;;;;;;6.28;2.20;;;22.80;63.40;;;;;;5073813;28;19905;-81
2021/08/02 12:49:59;;;;;;;5.47;2.70;;;22.60;63.60;;;;;;5076920;28;20023;-81
2021/08/02 12:52:28;;;;;;;4.03;2.40;;;22.50;63.90;;;;;;5075804;28;20025;-80
2021/08/02 12:54:55;;;;;;;4.28;2.28;;;22.30;63.60;;;;;;5075719;28;20358;-82